createdAt,value
2023-05-08T00:02:44.178Z,8.22
2023-05-08T00:05:45.758Z,8.18
2023-05-08T00:08:47.369Z,8.16
2023-05-08T00:11:49.005Z,8.12
2023-05-08T00:14:50.519Z,8.09
2023-05-08T00:17:52.135Z,8.05
2023-05-08T00:20:53.964Z,8.02
2023-05-08T00:23:55.544Z,8.00
2023-05-08T00:26:57.079Z,7.98
2023-05-08T00:29:58.861Z,7.96
2023-05-08T00:33:00.511Z,7.93
2023-05-08T00:36:02.860Z,7.91
2023-05-08T00:39:04.442Z,7.90
2023-05-08T00:42:06.024Z,7.88
2023-05-08T00:45:08.547Z,7.86
2023-05-08T00:48:10.118Z,7.85
2023-05-08T00:51:12.042Z,7.83
2023-05-08T00:54:14.417Z,7.81
2023-05-08T00:57:16.859Z,7.81
2023-05-08T01:00:19.510Z,7.79
2023-05-08T01:03:22.222Z,7.77
2023-05-08T01:06:23.864Z,7.76
2023-05-08T01:09:25.514Z,7.75
2023-05-08T01:12:48.244Z,7.73
2023-05-08T01:16:23.506Z,7.71
2023-05-08T01:19:43.004Z,7.69
2023-05-08T01:22:53.477Z,7.66
2023-05-08T01:26:01.061Z,7.65
2023-05-08T01:29:27.745Z,7.62
2023-05-08T01:32:39.261Z,7.58
2023-05-08T01:35:49.744Z,7.56
2023-05-08T01:39:07.157Z,7.55
2023-05-08T01:42:23.414Z,7.51
2023-05-08T01:45:34.689Z,7.49
2023-05-08T01:48:41.958Z,7.46
2023-05-08T01:51:46.088Z,7.43
2023-05-08T01:54:58.976Z,7.43
2023-05-08T01:58:04.285Z,7.41
2023-05-08T02:01:06.241Z,7.38
2023-05-08T02:04:09.912Z,7.35
2023-05-08T02:07:11.684Z,7.33
2023-05-08T02:10:15.699Z,7.32
2023-05-08T02:13:20.296Z,7.30
2023-05-08T02:16:22.961Z,7.27
2023-05-08T02:19:26.386Z,7.25
2023-05-08T02:22:28.690Z,7.22
2023-05-08T02:25:31.834Z,7.21
2023-05-08T02:28:34.688Z,7.20
2023-05-08T02:31:37.659Z,7.18
2023-05-08T02:34:45.224Z,7.17
2023-05-08T02:37:55.615Z,7.13
2023-05-08T02:41:01.083Z,7.12
2023-05-08T02:44:02.863Z,7.08
2023-05-08T02:47:20.203Z,7.08
2023-05-08T02:50:32.507Z,7.04
2023-05-08T02:53:52.221Z,7.00
2023-05-08T02:57:00.200Z,6.96
2023-05-08T03:00:14.839Z,6.92
2023-05-08T03:03:36.313Z,6.89
2023-05-08T03:06:45.591Z,6.85
2023-05-08T03:09:51.006Z,6.80
2023-05-08T03:12:55.137Z,6.76
2023-05-08T03:16:01.186Z,6.71
2023-05-08T03:19:07.673Z,6.65
2023-05-08T03:22:10.313Z,6.61
2023-05-08T03:25:14.391Z,6.57
2023-05-08T03:28:17.744Z,6.51
2023-05-08T03:31:23.255Z,6.47
2023-05-08T03:34:25.673Z,6.42
2023-05-08T03:37:28.743Z,6.40
2023-05-08T03:40:30.474Z,6.40
2023-05-08T03:43:32.928Z,6.38
2023-05-08T03:46:35.991Z,6.36
2023-05-08T03:49:38.834Z,6.33
2023-05-08T03:52:40.442Z,6.32
2023-05-08T03:55:42.083Z,6.32
2023-05-08T03:59:02.634Z,6.31
2023-05-08T04:02:42.403Z,6.29
2023-05-08T04:06:10.186Z,6.29
2023-05-08T04:09:24.829Z,6.28
2023-05-08T04:12:39.781Z,6.26
2023-05-08T04:16:06.740Z,6.28
2023-05-08T04:19:27.464Z,6.29
2023-05-08T04:22:30.494Z,6.29
2023-05-08T04:25:36.166Z,6.31
2023-05-08T04:28:38.027Z,6.32
2023-05-08T04:31:40.350Z,6.35
2023-05-08T04:34:42.084Z,6.40
2023-05-08T04:37:44.085Z,6.43
2023-05-08T04:40:45.744Z,6.44
2023-05-08T04:43:47.468Z,6.46
2023-05-08T04:46:50.242Z,6.50
2023-05-08T04:49:52.214Z,6.48
2023-05-08T04:52:53.823Z,6.48
2023-05-08T04:55:55.436Z,6.49
2023-05-08T04:58:56.939Z,6.51
2023-05-08T05:01:58.717Z,6.53
2023-05-08T05:05:01.438Z,6.56
2023-05-08T05:08:04.261Z,6.60
2023-05-08T05:11:05.823Z,6.64
2023-05-08T05:14:07.557Z,6.71
2023-05-08T05:17:09.115Z,6.72
2023-05-08T05:20:11.334Z,6.75
2023-05-08T05:23:12.881Z,6.76
2023-05-08T05:26:14.464Z,6.77
2023-05-08T05:29:16.006Z,6.81
2023-05-08T05:32:17.735Z,6.85
2023-05-08T05:35:19.336Z,6.87
2023-05-08T05:38:20.969Z,6.93
2023-05-08T05:41:22.548Z,6.99
2023-05-08T05:44:24.275Z,7.02
2023-05-08T05:47:26.091Z,7.07
2023-05-08T05:50:28.333Z,7.15
2023-05-08T05:53:29.874Z,7.25
2023-05-08T05:56:31.481Z,7.34
2023-05-08T05:59:33.241Z,7.44
2023-05-08T06:02:36.941Z,7.51
2023-05-08T06:05:38.580Z,7.58
2023-05-08T06:08:40.132Z,7.68
2023-05-08T06:11:42.169Z,7.74
2023-05-08T06:14:43.878Z,7.74
2023-05-08T06:17:45.509Z,7.73
2023-05-08T06:20:47.094Z,7.73
2023-05-08T06:23:48.737Z,7.71
2023-05-08T06:26:50.282Z,7.73
2023-05-08T06:29:53.270Z,7.75
2023-05-08T06:32:54.931Z,7.76
2023-05-08T06:35:56.532Z,7.73
2023-05-08T06:38:58.123Z,7.69
2023-05-08T06:41:59.702Z,7.69
2023-05-08T06:45:01.549Z,7.69
2023-05-08T06:48:03.291Z,7.69
2023-05-08T06:51:04.863Z,7.71
2023-05-08T06:54:08.306Z,7.74
2023-05-08T06:57:11.482Z,7.73
2023-05-08T07:00:15.024Z,7.76
2023-05-08T07:03:16.541Z,7.78
2023-05-08T07:06:18.093Z,7.81
2023-05-08T07:09:19.713Z,7.84
2023-05-08T07:12:21.304Z,7.90
2023-05-08T07:15:26.522Z,7.96
2023-05-08T07:18:28.728Z,8.09
2023-05-08T07:21:30.706Z,8.19
2023-05-08T07:24:33.122Z,8.27
2023-05-08T07:27:35.906Z,8.29
2023-05-08T07:30:37.570Z,8.31
2023-05-08T07:33:39.128Z,8.33
2023-05-08T07:36:40.749Z,8.42
2023-05-08T07:39:42.334Z,8.55
2023-05-08T07:42:45.071Z,8.74
2023-05-08T07:45:46.613Z,8.94
2023-05-08T07:48:48.944Z,9.17
2023-05-08T07:51:50.450Z,9.37
2023-05-08T07:54:52.582Z,9.50
2023-05-08T07:57:54.159Z,9.63
2023-05-08T08:00:55.739Z,9.76
2023-05-08T08:03:57.505Z,9.91
2023-05-08T08:06:59.420Z,10.06
2023-05-08T08:10:03.588Z,10.15
2023-05-08T08:13:05.498Z,10.25
2023-05-08T08:16:07.255Z,10.42
2023-05-08T08:19:10.935Z,10.59
2023-05-08T08:22:12.605Z,10.75
2023-05-08T08:25:14.466Z,10.86
2023-05-08T08:28:17.997Z,10.99
2023-05-08T08:31:20.151Z,11.11
2023-05-08T08:34:22.271Z,11.25
2023-05-08T08:37:24.363Z,11.33
2023-05-08T08:40:26.194Z,11.39
2023-05-08T08:43:28.665Z,11.48
2023-05-08T08:46:33.291Z,11.54
2023-05-08T08:49:36.398Z,11.57
2023-05-08T08:53:00.810Z,11.60
2023-05-08T08:56:06.314Z,11.67
2023-05-08T08:59:08.777Z,11.77
2023-05-08T09:02:13.751Z,11.88
2023-05-08T09:05:15.831Z,11.96
2023-05-08T09:08:18.765Z,12.04
2023-05-08T09:11:21.110Z,12.15
2023-05-08T09:14:24.521Z,12.21
2023-05-08T09:17:26.136Z,12.30
2023-05-08T09:20:28.733Z,12.34
2023-05-08T09:23:30.256Z,12.41
2023-05-08T09:26:36.073Z,12.47
2023-05-08T09:29:37.646Z,12.47
2023-05-08T09:32:42.907Z,12.48
2023-05-08T09:35:44.522Z,12.53
2023-05-08T09:38:46.069Z,12.64
2023-05-08T09:42:00.803Z,12.82
2023-05-08T09:45:02.424Z,13.01
2023-05-08T09:48:04.237Z,13.21
2023-05-08T09:51:07.055Z,13.37
2023-05-08T09:54:18.187Z,13.61
2023-05-08T09:57:19.840Z,13.80
2023-05-08T10:00:22.262Z,13.97
2023-05-08T10:03:23.858Z,14.08
2023-05-08T10:06:26.079Z,14.13
2023-05-08T10:09:35.613Z,14.19
2023-05-08T10:12:44.665Z,14.18
2023-05-08T10:15:53.907Z,14.25
2023-05-08T10:19:06.015Z,14.45
2023-05-08T10:22:11.423Z,14.69
2023-05-08T10:25:17.109Z,14.85
2023-05-08T10:28:29.238Z,14.98
2023-05-08T10:31:44.027Z,15.15
2023-05-08T10:34:49.407Z,15.30
2023-05-08T10:37:53.000Z,15.43
2023-05-08T10:40:58.089Z,15.60
2023-05-08T10:44:02.527Z,15.79
2023-05-08T10:47:45.882Z,15.90
2023-05-08T10:51:10.219Z,16.05
2023-05-08T10:54:47.239Z,16.15
2023-05-08T10:58:29.451Z,16.21
2023-05-08T11:01:31.063Z,16.35
2023-05-08T11:04:33.602Z,16.51
2023-05-08T11:07:59.571Z,16.57
2023-05-08T11:11:02.425Z,16.64
2023-05-08T11:14:06.697Z,16.74
2023-05-08T11:17:09.504Z,16.78
2023-05-08T11:20:11.348Z,16.75
2023-05-08T11:23:23.720Z,16.74
2023-05-08T11:26:40.486Z,16.88
2023-05-08T11:29:42.638Z,17.04
2023-05-08T11:33:07.627Z,17.19
2023-05-08T11:36:17.173Z,17.28
2023-05-08T11:39:18.723Z,17.39
2023-05-08T11:42:29.182Z,17.48
2023-05-08T11:45:32.461Z,17.58
2023-05-08T11:48:35.962Z,17.72
2023-05-08T11:51:38.472Z,17.76
2023-05-08T11:54:40.194Z,17.76
2023-05-08T11:57:41.779Z,17.69
2023-05-08T12:00:45.419Z,17.70
2023-05-08T12:03:47.468Z,17.86
2023-05-08T12:06:51.475Z,17.98
2023-05-08T12:09:53.118Z,18.12
2023-05-08T12:12:54.659Z,18.28
2023-05-08T12:15:58.188Z,18.49
2023-05-08T12:18:59.868Z,18.62
2023-05-08T12:22:01.390Z,18.64
2023-05-08T12:25:05.250Z,18.65
2023-05-08T12:28:07.951Z,18.60
2023-05-08T12:31:10.401Z,18.64
2023-05-08T12:34:12.781Z,18.55
2023-05-08T12:37:24.379Z,18.48
2023-05-08T12:40:33.825Z,18.52
2023-05-08T12:43:36.394Z,18.59
2023-05-08T12:46:46.614Z,18.63
2023-05-08T12:49:52.748Z,18.61
2023-05-08T12:52:55.048Z,18.56
2023-05-08T12:56:03.515Z,18.58
2023-05-08T12:59:05.114Z,18.54
2023-05-08T13:02:24.247Z,18.49
2023-05-08T13:05:26.118Z,18.48
2023-05-08T13:08:37.107Z,18.51
2023-05-08T13:11:39.644Z,18.56
2023-05-08T13:14:41.178Z,18.63
2023-05-08T13:17:43.404Z,18.62
2023-05-08T13:20:46.580Z,18.64
2023-05-08T13:23:48.549Z,18.71
2023-05-08T13:26:50.110Z,18.69
2023-05-08T13:29:51.746Z,18.66
2023-05-08T13:32:53.958Z,18.62
2023-05-08T13:35:56.389Z,18.65
2023-05-08T13:38:57.940Z,18.73
2023-05-08T13:41:59.525Z,18.67
2023-05-08T13:45:01.711Z,18.69
2023-05-08T13:48:03.457Z,18.77
2023-05-08T13:51:05.343Z,18.82
2023-05-08T13:54:06.976Z,18.92
2023-05-08T13:57:11.930Z,18.93
2023-05-08T14:00:14.339Z,18.87
2023-05-08T14:03:15.975Z,18.88
2023-05-08T14:06:17.590Z,18.88
2023-05-08T14:09:19.204Z,18.91
2023-05-08T14:12:20.776Z,18.95
2023-05-08T14:15:26.850Z,19.02
2023-05-08T14:18:33.270Z,19.06
2023-05-08T14:21:35.153Z,19.04
2023-05-08T14:24:36.749Z,19.05
2023-05-08T14:27:38.673Z,19.12
2023-05-08T14:30:40.227Z,19.18
2023-05-08T14:33:41.802Z,19.22
2023-05-08T14:36:43.424Z,19.19
2023-05-08T14:39:45.574Z,19.13
2023-05-08T14:42:47.085Z,19.08
2023-05-08T14:45:49.226Z,19.07
2023-05-08T14:48:51.339Z,19.07
2023-05-08T14:51:52.855Z,19.06
2023-05-08T14:54:54.649Z,19.07
2023-05-08T14:57:56.549Z,19.10
2023-05-08T15:00:58.197Z,19.13
2023-05-08T15:03:59.830Z,19.16
2023-05-08T15:07:01.473Z,19.20
2023-05-08T15:10:03.945Z,19.32
2023-05-08T15:13:05.654Z,19.44
2023-05-08T15:16:07.357Z,19.42
2023-05-08T15:19:09.590Z,19.38
2023-05-08T15:22:11.903Z,19.37
2023-05-08T15:25:13.607Z,19.41
2023-05-08T15:28:15.330Z,19.43
2023-05-08T15:31:17.600Z,19.44
2023-05-08T15:34:19.208Z,19.45
2023-05-08T15:37:23.619Z,19.48
2023-05-08T15:40:25.119Z,19.49
2023-05-08T15:43:26.846Z,19.52
2023-05-08T15:46:28.490Z,19.57
2023-05-08T15:49:30.011Z,19.57
2023-05-08T15:52:31.602Z,19.55
2023-05-08T15:55:33.146Z,19.53
2023-05-08T15:58:36.801Z,19.52
2023-05-08T16:01:42.322Z,19.51
2023-05-08T16:04:44.112Z,19.53
2023-05-08T16:07:45.801Z,19.57
2023-05-08T16:10:48.473Z,19.57
2023-05-08T16:13:50.303Z,19.52
2023-05-08T16:16:51.834Z,19.44
2023-05-08T16:19:53.398Z,19.37
2023-05-08T16:22:56.016Z,19.27
2023-05-08T16:25:57.637Z,19.17
2023-05-08T16:28:59.170Z,19.08
2023-05-08T16:32:00.906Z,19.04
2023-05-08T16:35:02.663Z,18.98
2023-05-08T16:38:04.780Z,18.96
2023-05-08T16:41:09.137Z,18.96
2023-05-08T16:44:10.658Z,18.92
2023-05-08T16:47:12.255Z,18.87
2023-05-08T16:50:13.919Z,18.79
2023-05-08T16:53:15.553Z,18.73
2023-05-08T16:56:17.069Z,18.71
2023-05-08T16:59:18.623Z,18.66
2023-05-08T17:02:20.363Z,18.62
2023-05-08T17:05:22.209Z,18.57
2023-05-08T17:08:23.767Z,18.53
2023-05-08T17:11:25.870Z,18.45
2023-05-08T17:14:27.446Z,18.39
2023-05-08T17:17:29.145Z,18.29
2023-05-08T17:20:31.136Z,18.23
2023-05-08T17:23:32.809Z,18.18
2023-05-08T17:26:34.551Z,18.16
2023-05-08T17:29:36.241Z,18.15
2023-05-08T17:32:38.010Z,18.18
2023-05-08T17:35:43.013Z,18.18
2023-05-08T17:38:46.077Z,18.17
2023-05-08T17:41:49.344Z,18.15
2023-05-08T17:44:51.045Z,18.13
2023-05-08T17:47:52.828Z,18.06
2023-05-08T17:50:54.578Z,17.99
2023-05-08T17:53:56.991Z,17.89
2023-05-08T17:56:58.507Z,17.81
2023-05-08T18:00:00.201Z,17.73
2023-05-08T18:03:02.118Z,17.64
2023-05-08T18:06:06.772Z,17.55
2023-05-08T18:09:09.117Z,17.48
2023-05-08T18:12:11.048Z,17.43
2023-05-08T18:15:13.038Z,17.36
2023-05-08T18:18:14.580Z,17.31
2023-05-08T18:21:16.365Z,17.25
2023-05-08T18:24:18.000Z,17.19
2023-05-08T18:27:19.548Z,17.13
2023-05-08T18:30:21.175Z,17.07
2023-05-08T18:33:22.761Z,17.02
2023-05-08T18:36:24.456Z,16.96
2023-05-08T18:39:26.318Z,16.88
2023-05-08T18:42:28.118Z,16.88
2023-05-08T18:45:29.651Z,16.84
2023-05-08T18:48:31.460Z,16.78
2023-05-08T18:51:33.018Z,16.70
2023-05-08T18:54:34.591Z,16.66
2023-05-08T18:57:36.324Z,16.61
2023-05-08T19:00:37.966Z,16.55
2023-05-08T19:03:39.604Z,16.67
2023-05-08T19:06:41.395Z,16.56
2023-05-08T19:09:43.038Z,16.47
2023-05-08T19:12:45.513Z,16.34
2023-05-08T19:15:47.174Z,16.24
2023-05-08T19:18:48.879Z,16.13
2023-05-08T19:21:50.475Z,16.05
2023-05-08T19:24:52.069Z,15.98
2023-05-08T19:27:53.678Z,15.94
2023-05-08T19:30:55.349Z,15.87
2023-05-08T19:33:57.456Z,15.83
2023-05-08T19:36:59.099Z,15.77
2023-05-08T19:40:00.785Z,15.73
2023-05-08T19:43:02.313Z,15.67
2023-05-08T19:46:03.929Z,15.60
2023-05-08T19:49:05.958Z,15.54
2023-05-08T19:52:07.563Z,15.47
2023-05-08T19:55:09.351Z,15.41
2023-05-08T19:58:10.924Z,15.34
2023-05-08T20:01:12.585Z,15.29
2023-05-08T20:04:14.170Z,15.25
2023-05-08T20:07:16.085Z,15.23
2023-05-08T20:10:18.341Z,15.18
2023-05-08T20:13:21.474Z,15.09
2023-05-08T20:16:24.721Z,15.02
2023-05-08T20:19:27.572Z,14.96
2023-05-08T20:22:30.857Z,14.89
2023-05-08T20:25:32.746Z,14.79
2023-05-08T20:28:35.804Z,14.72
2023-05-08T20:31:37.619Z,14.68
2023-05-08T20:34:39.690Z,14.61
2023-05-08T20:37:46.058Z,14.56
2023-05-08T20:40:48.580Z,14.50
2023-05-08T20:43:50.274Z,14.42
2023-05-08T20:46:51.992Z,14.33
2023-05-08T20:49:54.199Z,14.23
2023-05-08T20:52:57.024Z,14.16
2023-05-08T20:56:03.982Z,14.10
2023-05-08T20:59:05.618Z,14.02
2023-05-08T21:02:07.574Z,13.95
2023-05-08T21:05:09.597Z,13.89
2023-05-08T21:08:12.066Z,13.85
2023-05-08T21:11:16.876Z,13.80
2023-05-08T21:14:19.114Z,13.74
2023-05-08T21:17:21.609Z,13.69
2023-05-08T21:20:24.212Z,13.64
2023-05-08T21:23:26.260Z,13.62
2023-05-08T21:26:27.837Z,13.58
2023-05-08T21:29:29.485Z,13.53
2023-05-08T21:32:31.071Z,13.47
2023-05-08T21:35:32.656Z,13.40
2023-05-08T21:38:34.260Z,13.35
2023-05-08T21:41:35.861Z,13.31
2023-05-08T21:44:37.433Z,13.30
2023-05-08T21:47:39.049Z,13.29
2023-05-08T21:50:40.620Z,13.24
2023-05-08T21:53:42.162Z,13.19
2023-05-08T21:56:43.701Z,13.13
2023-05-08T21:59:45.297Z,13.09
2023-05-08T22:02:47.276Z,13.06
2023-05-08T22:05:48.967Z,13.02
2023-05-08T22:08:50.607Z,13.01
2023-05-08T22:11:52.166Z,13.00
2023-05-08T22:14:53.808Z,12.98
2023-05-08T22:17:56.154Z,13.26
2023-05-08T22:20:57.772Z,13.19
2023-05-08T22:23:59.364Z,13.17
2023-05-08T22:27:00.981Z,13.11
2023-05-08T22:30:02.780Z,13.04
2023-05-08T22:33:04.373Z,12.97
2023-05-08T22:36:06.367Z,12.90
2023-05-08T22:39:10.176Z,12.83
2023-05-08T22:42:11.811Z,12.80
2023-05-08T22:45:14.830Z,12.77
2023-05-08T22:48:16.796Z,12.74
2023-05-08T22:51:18.795Z,12.70
2023-05-08T22:54:20.382Z,12.66
2023-05-08T22:57:22.003Z,12.63
2023-05-08T23:00:24.870Z,12.62
2023-05-08T23:03:26.734Z,12.58
2023-05-08T23:06:28.234Z,12.53
2023-05-08T23:09:30.918Z,12.48
2023-05-08T23:12:32.602Z,12.44
2023-05-08T23:15:34.178Z,12.41
2023-05-08T23:18:35.901Z,12.39
2023-05-08T23:21:37.468Z,12.36
2023-05-08T23:24:39.026Z,12.31
2023-05-08T23:27:41.049Z,12.25
2023-05-08T23:30:42.639Z,12.19
2023-05-08T23:33:44.226Z,12.15
2023-05-08T23:36:45.927Z,12.11
2023-05-08T23:39:47.486Z,12.08
2023-05-08T23:42:49.043Z,12.04
2023-05-08T23:45:50.615Z,12.00
2023-05-08T23:48:52.428Z,11.96
2023-05-08T23:51:53.940Z,11.91
2023-05-08T23:54:55.552Z,11.88
2023-05-08T23:57:57.424Z,11.87
